Time;durP1;ratioP1;P1;durP2;ratioP2;P2;SDS_P1;SDS_P2;PMS_P1;PMS_P2;Temp;Humidity;BMP_temperature;BMP_pressure;BME280_temperature;BME280_humidity;BME280_pressure;Samples;Min_cycle;Max_cycle;Signal;HPM_P1;HPM_P2
2021/11/14 00:07:35;;;;;;;10.18;7.00;;;;;;;;;;21173585;28;20130;-60
2021/11/14 00:17:37;;;;;;;14.88;10.48;;;;;;;;;;21172125;28;20043;-61
2021/11/14 00:27:40;;;;;;;9.00;6.13;;;;;;;;;;21170382;28;20055;-60
2021/11/14 00:37:43;;;;;;;8.77;6.30;;;;;;;;;;21169799;28;20083;-60
2021/11/14 00:47:46;;;;;;;8.82;6.50;;;;;;;;;;21169334;28;20047;-60
2021/11/14 00:57:48;;;;;;;11.32;7.22;;;;;;;;;;21168561;28;20056;-61
2021/11/14 01:07:51;;;;;;;8.40;5.82;;;;;;;;;;21166834;28;20052;-60
2021/11/14 01:17:54;;;;;;;9.57;6.97;;;;;;;;;;21166173;28;20047;-60
2021/11/14 01:27:57;;;;;;;8.10;6.15;;;;;;;;;;21165676;28;20055;-63
2021/11/14 01:38:00;;;;;;;9.20;5.82;;;;;;;;;;21164898;28;20100;-60
2021/11/14 01:48:05;;;;;;;8.95;6.75;;;;;;;;;;21164119;28;20051;-61
2021/11/14 01:58:08;;;;;;;8.43;6.30;;;;;;;;;;21163439;28;20048;-59
2021/11/14 02:08:14;;;;;;;9.20;6.55;;;;;;;;;;21163126;28;20047;-59
2021/11/14 02:18:19;;;;;;;9.33;6.73;;;;;;;;;;21163364;28;20399;-60
2021/11/14 02:28:29;;;;;;;9.23;6.63;;;;;;;;;;21162193;28;20056;-60
2021/11/14 02:38:40;;;;;;;9.32;6.63;;;;;;;;;;21162046;28;20055;-60
2021/11/14 02:48:46;;;;;;;9.25;6.70;;;;;;;;;;21144099;28;20044;-60
2021/11/14 02:59:04;;;;;;;10.48;6.65;;;;;;;;;;21161115;28;20044;-60
2021/11/14 03:09:20;;;;;;;11.25;7.03;;;;;;;;;;21171323;28;20475;-59
2021/11/14 03:19:34;;;;;;;8.77;6.60;;;;;;;;;;21176553;28;20261;-59
2021/11/14 03:29:46;;;;;;;10.50;7.63;;;;;;;;;;21175282;28;20469;-59
2021/11/14 03:39:58;;;;;;;8.93;6.78;;;;;;;;;;21158078;28;20047;-60
2021/11/14 03:50:11;;;;;;;11.27;7.22;;;;;;;;;;21173950;28;20051;-60
2021/11/14 04:00:26;;;;;;;10.05;7.72;;;;;;;;;;21173233;28;20048;-60
2021/11/14 04:10:48;;;;;;;10.63;7.57;;;;;;;;;;21171699;28;20437;-63
2021/11/14 04:21:10;;;;;;;9.63;6.65;;;;;;;;;;21170875;28;20051;-60
2021/11/14 04:31:31;;;;;;;10.10;7.50;;;;;;;;;;21169569;28;20055;-60
2021/11/14 04:41:53;;;;;;;10.68;6.70;;;;;;;;;;21170730;28;20047;-60
2021/11/14 04:52:15;;;;;;;8.75;6.20;;;;;;;;;;21169211;28;20047;-59
2021/11/14 05:02:37;;;;;;;10.15;6.97;;;;;;;;;;21168582;28;20381;-59
2021/11/14 05:12:59;;;;;;;9.25;7.10;;;;;;;;;;21167551;28;20466;-59
2021/11/14 05:23:17;;;;;;;8.45;6.10;;;;;;;;;;21166603;28;20063;-61
2021/11/14 05:33:32;;;;;;;10.63;7.63;;;;;;;;;;21165127;28;20079;-61
2021/11/14 05:43:42;;;;;;;10.38;7.47;;;;;;;;;;21165174;28;20047;-60
2021/11/14 05:53:49;;;;;;;9.70;6.80;;;;;;;;;;21165054;28;20059;-60
2021/11/14 06:14:15;;;;;;;12.80;7.15;;;;;;;;;;21163411;28;20099;-60
2021/11/14 06:24:21;;;;;;;12.40;7.63;;;;;;;;;;21163260;28;20435;-60
2021/11/14 06:34:26;;;;;;;9.55;6.78;;;;;;;;;;21162820;28;20051;-59
2021/11/14 06:44:30;;;;;;;10.95;7.45;;;;;;;;;;21173592;28;20046;-59
2021/11/14 06:54:33;;;;;;;9.98;6.35;;;;;;;;;;21178415;28;20079;-60
2021/11/14 07:04:37;;;;;;;11.05;7.40;;;;;;;;;;21177226;28;20044;-59
2021/11/14 07:14:41;;;;;;;11.80;7.32;;;;;;;;;;21176842;28;20104;-59
2021/11/14 07:24:44;;;;;;;10.50;7.35;;;;;;;;;;21157728;28;20063;-59
2021/11/14 07:34:49;;;;;;;10.23;7.60;;;;;;;;;;21175230;28;20052;-60
2021/11/14 07:44:51;;;;;;;15.80;10.18;;;;;;;;;;21174359;28;20101;-61
2021/11/14 07:54:59;;;;;;;10.65;7.40;;;;;;;;;;21173148;28;20048;-59
2021/11/14 08:05:04;;;;;;;11.40;8.20;;;;;;;;;;21172947;28;20468;-59
2021/11/14 08:15:06;;;;;;;11.27;8.98;;;;;;;;;;21172273;28;20075;-61
2021/11/14 08:25:11;;;;;;;11.13;8.27;;;;;;;;;;21171521;28;20416;-60
2021/11/14 08:35:13;;;;;;;13.50;9.07;;;;;;;;;;21170655;28;20067;-60
2021/11/14 08:45:17;;;;;;;10.90;7.88;;;;;;;;;;21169090;28;20048;-60
2021/11/14 08:55:22;;;;;;;14.43;9.27;;;;;;;;;;21168391;28;20054;-60
2021/11/14 09:05:26;;;;;;;13.70;10.13;;;;;;;;;;21166675;28;20051;-61
2021/11/14 09:15:29;;;;;;;13.75;9.73;;;;;;;;;;21168051;28;20403;-61
2021/11/14 09:25:32;;;;;;;18.73;11.48;;;;;;;;;;21165947;28;20062;-60
2021/11/14 09:35:36;;;;;;;15.83;10.80;;;;;;;;;;21165982;28;20100;-62
2021/11/14 09:45:40;;;;;;;23.85;15.00;;;;;;;;;;21165032;28;20472;-62
2021/11/14 09:55:44;;;;;;;25.13;13.38;;;;;;;;;;21164507;28;20054;-59
2021/11/14 10:05:49;;;;;;;19.27;13.18;;;;;;;;;;21163631;28;20043;-59
2021/11/14 10:16:03;;;;;;;23.92;14.88;;;;;;;;;;21162499;28;20043;-62
2021/11/14 10:26:08;;;;;;;22.52;15.63;;;;;;;;;;21161423;28;20068;-60
2021/11/14 10:36:14;;;;;;;15.20;11.48;;;;;;;;;;21160149;28;20480;-60
2021/11/14 10:46:21;;;;;;;14.20;10.75;;;;;;;;;;21162734;28;20050;-62
2021/11/14 10:56:28;;;;;;;15.35;9.52;;;;;;;;;;21161922;28;20048;-60
2021/11/14 11:06:32;;;;;;;17.00;10.82;;;;;;;;;;21160518;28;20085;-60
2021/11/14 11:16:35;;;;;;;12.68;8.52;;;;;;;;;;21160194;28;20392;-60
2021/11/14 11:26:40;;;;;;;12.90;9.37;;;;;;;;;;21165448;28;20460;-61
2021/11/14 11:36:44;;;;;;;10.07;8.37;;;;;;;;;;21174949;28;20044;-60
2021/11/14 11:46:51;;;;;;;15.57;8.80;;;;;;;;;;21173639;28;20089;-59
2021/11/14 11:56:57;;;;;;;13.05;9.30;;;;;;;;;;21173243;28;20071;-62
2021/11/14 12:07:05;;;;;;;13.75;9.40;;;;;;;;;;21172950;28;20460;-61
2021/11/14 12:17:09;;;;;;;16.17;10.88;;;;;;;;;;21171689;28;20075;-62
2021/11/14 12:27:28;;;;;;;15.48;10.82;;;;;;;;;;21169813;28;20052;-61
2021/11/14 12:37:31;;;;;;;16.50;11.25;;;;;;;;;;21150404;28;20503;-60
2021/11/14 12:47:41;;;;;;;15.63;10.93;;;;;;;;;;21168385;28;20055;-60
2021/11/14 12:57:47;;;;;;;14.95;10.45;;;;;;;;;;21168149;28;20047;-60
2021/11/14 13:07:51;;;;;;;14.70;10.38;;;;;;;;;;21148311;28;20047;-61
2021/11/14 13:17:57;;;;;;;19.00;12.30;;;;;;;;;;21166002;28;20051;-60
2021/11/14 13:28:01;;;;;;;16.92;10.18;;;;;;;;;;21165185;28;20047;-61
2021/11/14 13:38:04;;;;;;;16.58;10.57;;;;;;;;;;21164392;28;20043;-61
2021/11/14 13:48:09;;;;;;;12.30;8.77;;;;;;;;;;21164004;28;20494;-60
2021/11/14 13:58:12;;;;;;;11.10;7.83;;;;;;;;;;21163639;28;20131;-61
2021/11/14 14:08:22;;;;;;;14.07;8.32;;;;;;;;;;21163097;28;20142;-62
2021/11/14 14:18:25;;;;;;;6.22;4.57;;;;;;;;;;21162715;28;20055;-61
2021/11/14 14:28:30;;;;;;;9.20;5.47;;;;;;;;;;21162108;28;20056;-62
2021/11/14 14:38:35;;;;;;;9.20;6.03;;;;;;;;;;21162059;28;20044;-61
2021/11/14 14:48:43;;;;;;;14.10;9.70;;;;;;;;;;21161512;28;20488;-60
2021/11/14 14:58:50;;;;;;;5.68;4.22;;;;;;;;;;21161956;28;20043;-59
2021/11/14 15:08:52;;;;;;;8.20;5.43;;;;;;;;;;21158064;28;20106;-61
2021/11/14 15:18:55;;;;;;;9.65;7.00;;;;;;;;;;21176346;28;20051;-62
2021/11/14 15:28:57;;;;;;;8.95;5.90;;;;;;;;;;21174783;28;20464;-63
2021/11/14 15:39:00;;;;;;;10.32;5.47;;;;;;;;;;21174351;28;20071;-60
2021/11/14 15:49:04;;;;;;;6.80;4.15;;;;;;;;;;21173897;28;20047;-62
2021/11/14 15:59:06;;;;;;;8.18;4.82;;;;;;;;;;21172504;28;20059;-60
2021/11/14 16:09:12;;;;;;;7.37;3.87;;;;;;;;;;21154844;28;20052;-60
2021/11/14 16:19:14;;;;;;;7.72;5.07;;;;;;;;;;21171375;28;20048;-62
2021/11/14 16:29:20;;;;;;;10.73;6.22;;;;;;;;;;21170143;28;20062;-62
2021/11/14 16:39:23;;;;;;;11.65;7.70;;;;;;;;;;21169897;28;20043;-61
2021/11/14 16:49:25;;;;;;;16.25;9.13;;;;;;;;;;21170162;28;20047;-61
2021/11/14 16:59:28;;;;;;;11.45;7.70;;;;;;;;;;21169398;28;20047;-60
2021/11/14 17:09:30;;;;;;;11.32;8.02;;;;;;;;;;21168815;28;20470;-62
2021/11/14 17:19:33;;;;;;;15.50;8.82;;;;;;;;;;21149362;28;20101;-60
2021/11/14 17:29:35;;;;;;;11.90;4.97;;;;;;;;;;21164957;28;20143;-60
2021/11/14 17:39:38;;;;;;;6.03;3.42;;;;;;;;;;21165832;28;20093;-60
2021/11/14 17:49:41;;;;;;;8.80;3.60;;;;;;;;;;21164815;28;20453;-60
2021/11/14 17:59:44;;;;;;;5.15;2.22;;;;;;;;;;21164371;28;20498;-60
2021/11/14 18:09:49;;;;;;;9.50;2.67;;;;;;;;;;21163896;28;20523;-62
2021/11/14 18:19:51;;;;;;;4.87;2.50;;;;;;;;;;21145063;28;20399;-62
2021/11/14 18:29:54;;;;;;;6.43;2.17;;;;;;;;;;21161444;28;20048;-62
2021/11/14 18:39:56;;;;;;;5.82;2.13;;;;;;;;;;21173050;28;20404;-60
2021/11/14 18:49:59;;;;;;;5.50;2.63;;;;;;;;;;21178700;28;20051;-60
2021/11/14 19:00:04;;;;;;;6.28;3.60;;;;;;;;;;21159880;28;20043;-60
2021/11/14 19:10:07;;;;;;;5.97;2.50;;;;;;;;;;21177219;28;20055;-61
2021/11/14 19:20:12;;;;;;;9.20;4.57;;;;;;;;;;21176157;28;20055;-60
2021/11/14 19:30:18;;;;;;;6.05;3.00;;;;;;;;;;21156529;28;20503;-61
2021/11/14 19:40:22;;;;;;;7.93;4.03;;;;;;;;;;21174053;28;20047;-59
2021/11/14 19:50:27;;;;;;;4.72;3.17;;;;;;;;;;21172816;28;20108;-60
2021/11/14 20:00:30;;;;;;;8.23;4.07;;;;;;;;;;21173521;28;20051;-61
2021/11/14 20:10:33;;;;;;;7.13;3.42;;;;;;;;;;21173234;28;20083;-61
2021/11/14 20:20:36;;;;;;;8.38;3.03;;;;;;;;;;21172042;28;20048;-61
2021/11/14 20:30:39;;;;;;;8.07;2.72;;;;;;;;;;21171175;28;20047;-60
2021/11/14 20:40:42;;;;;;;4.15;2.15;;;;;;;;;;21170754;28;20051;-61
2021/11/14 20:50:45;;;;;;;8.07;2.85;;;;;;;;;;21170322;28;20047;-60
2021/11/14 21:00:47;;;;;;;4.38;2.30;;;;;;;;;;21168046;28;20056;-62
2021/11/14 21:10:49;;;;;;;3.78;2.22;;;;;;;;;;21169035;28;20567;-62
2021/11/14 21:20:52;;;;;;;6.63;1.70;;;;;;;;;;21167931;28;20040;-61
2021/11/14 21:30:55;;;;;;;5.03;2.45;;;;;;;;;;21166631;28;20113;-61
2021/11/14 21:40:56;;;;;;;5.15;2.08;;;;;;;;;;21165895;28;20506;-60
2021/11/14 21:51:00;;;;;;;5.13;2.20;;;;;;;;;;21165443;28;20472;-60
2021/11/14 22:01:02;;;;;;;8.57;3.03;;;;;;;;;;21165803;28;20492;-60
2021/11/14 22:11:05;;;;;;;7.38;3.03;;;;;;;;;;21163730;28;20446;-62
2021/11/14 22:21:06;;;;;;;13.57;8.00;;;;;;;;;;21163374;28;20051;-60
2021/11/14 22:31:10;;;;;;;10.35;4.47;;;;;;;;;;21162488;28;20063;-60
2021/11/14 22:41:13;;;;;;;9.45;3.45;;;;;;;;;;21162979;28;20506;-62
2021/11/14 22:51:16;;;;;;;7.35;4.07;;;;;;;;;;21162436;28;20044;-61
2021/11/14 23:01:26;;;;;;;7.95;2.47;;;;;;;;;;21162651;28;20044;-60
2021/11/14 23:11:29;;;;;;;7.03;2.55;;;;;;;;;;21162693;28;20503;-58
2021/11/14 23:21:31;;;;;;;5.70;2.75;;;;;;;;;;21163690;28;20043;-61
2021/11/14 23:31:33;;;;;;;6.88;3.10;;;;;;;;;;21175946;28;20048;-60
2021/11/14 23:41:36;;;;;;;7.47;3.15;;;;;;;;;;21176389;28;20050;-59
2021/11/14 23:51:38;;;;;;;7.68;3.00;;;;;;;;;;21157644;28;20124;-59
